Create Custom Reports and Graphics: Custom Report

Modesto Jr College

Current Conditions

12/4/22 6:15 AM (-08:00)
Updated Every 15 Minutes
Temp 45.9 °F   0.1
RH 96 %   12
Dew Pt 44.7 °F   3.5
Wind Spd 3.6 mph
Wind Dir SE | 128 °
Wind Gust 6.6 mph   1.5
Latest Rain 0.00 In
Daily Rain 0.05 In
Daily Min Temp 43.4 °F   2.1
Daily Max Temp 46.7 °F   0.7

Last 24 Hours

Modesto Jr College

15 Minute Data | America/Los_Angeles
as of 12/4/22 6:18 AM PST
Date & Time Temp (°F) RH (%) Dew Pt (°F) Wind Spd (mph) Wind Dir (°) Wind Gust (mph) Latest Rain (In) Daily Rain (In) Daily Min Temp (°F) Daily Max Temp (°F)
12/4/22 - 0615 45.9 96 44.7 3.6 SE | 128 6.6 0.00 0.05 43.4 46.7
12/4/22 - 0600 45.4 96 44.2 1.2 SE | 140 4.2 0.00 0.05 43.4 46.7
12/4/22 - 0545 45.5 95 44.3 1.2 SE | 124 3.1 0.00 0.05 43.4 46.7
12/4/22 - 0530 45.8 96 44.6 0.8 SSW | 209 2.8 0.01 0.05 43.4 46.7
12/4/22 - 0515 45.6 96 44.4 1.8 SSE | 154 3.3 0.00 0.04 43.4 46.7
12/4/22 - 0500 44.7 96 43.6 2.2 SE | 142 3.5 0.00 0.04 43.4 46.7
12/4/22 - 0445 43.9 95 42.5 0.8 S | 171 2.2 0.00 0.04 43.4 46.7
12/4/22 - 0430 44.4 96 43.1 0.9 SE | 139 3.1 0.01 0.04 43.7 46.7
12/4/22 - 0415 44.4 95 43.1 1.1 NE | 53 2.6 0.00 0.03 43.7 46.7
12/4/22 - 0400 44.8 95 43.5 2.4 ENE | 74 4.2 0.00 0.03 44.5 46.7
12/4/22 - 0345 45.6 95 44.2 0.9 NE | 40 3.7 0.00 0.03 45.1 46.7
12/4/22 - 0330 46.3 95 45.0 1.9 NNE | 26 3.7 0.00 0.03 45.1 46.7
12/4/22 - 0315 46.5 95 45.2 3.0 NNW | 334 5.5 0.01 0.03 45.1 46.7
12/4/22 - 0300 46.4 95 45.2 2.3 N | 9 5.9 0.00 0.02 45.1 46.7
12/4/22 - 0245 46.2 95 45.0 1.4 N | 356 3.1 0.00 0.02 45.1 46.5
12/4/22 - 0230 46.1 95 44.8 1.5 NNE | 26 2.8 0.00 0.02 45.1 46.2
12/4/22 - 0215 45.9 95 44.7 1.4 NNW | 348 2.4 0.01 0.02 45.1 46.2
12/4/22 - 0200 45.8 95 44.5 2.0 N | 357 4.4 0.00 0.01 45.1 46.1
12/4/22 - 0145 45.8 95 44.6 0.9 N | 354 3.5 0.00 0.01 45.1 46.1
12/4/22 - 0130 45.7 95 44.4 1.0 NNW | 340 2.6 0.00 0.01 45.1 45.9
12/4/22 - 0115 45.6 95 44.3 1.5 NNW | 344 3.7 0.00 0.01 45.1 45.8
12/4/22 - 0100 45.3 95 44.1 1.8 NW | 311 3.5 0.01 0.01 45.1 45.6
12/4/22 - 0045 45.2 95 44.0 2.9 NW | 313 5.0 0.00 0.00 45.1 45.6
12/4/22 - 0030 45.3 95 44.1 3.9 WNW | 303 6.4 0.00 0.00 45.1 45.6
12/4/22 - 0015 45.3 95 44.0 2.9 NW | 306 4.6 0.00 0.00 45.1 45.5
12/4/22 - 0000 45.5 95 44.2 2.9 NW | 322 5.3 0.01 0.13 41.4 56.3
12/3/22 - 2345 45.3 95 44.1 1.9 NNW | 347 3.7 0.00 0.12 41.4 56.3
12/3/22 - 2330 45.0 95 43.7 1.4 NW | 319 3.5 0.00 0.12 41.4 56.3
12/3/22 - 2315 44.8 95 43.5 1.9 NW | 319 4.6 0.00 0.12 41.4 56.3
12/3/22 - 2300 44.7 95 43.4 2.3 WNW | 294 5.0 0.00 0.12 41.4 56.3
12/3/22 - 2245 44.6 95 43.2 3.7 W | 281 7.2 0.01 0.12 41.4 56.3
12/3/22 - 2230 44.5 95 43.2 5.1 WNW | 282 9.0 0.00 0.11 41.4 56.3
12/3/22 - 2215 44.6 95 43.2 4.8 WNW | 282 7.9 0.00 0.11 41.4 56.3
12/3/22 - 2200 44.8 95 43.4 6.0 WNW | 283 10.3 0.00 0.11 41.4 56.3
12/3/22 - 2145 45.2 94 43.7 4.4 WNW | 293 8.1 0.01 0.11 41.4 56.3
12/3/22 - 2130 45.6 94 44.2 4.8 W | 279 7.9 0.00 0.10 41.4 56.3
12/3/22 - 2115 46.2 94 44.6 4.5 WNW | 282 7.7 0.00 0.10 41.4 56.3
12/3/22 - 2100 46.7 94 45.1 3.5 WNW | 288 6.8 0.00 0.10 41.4 56.3
12/3/22 - 2045 47.8 94 46.0 5.2 WNW | 290 8.3 0.00 0.10 41.4 56.3
12/3/22 - 2030 51.4 93 49.3 4.9 WNW | 298 7.9 0.01 0.10 41.4 56.3
12/3/22 - 2015 54.3 95 52.9 1.9 W | 264 5.7 0.00 0.09 41.4 56.3
12/3/22 - 2000 54.2 95 52.8 3.0 W | 271 4.8 0.00 0.09 41.4 56.3
12/3/22 - 1945 54.2 94 52.7 2.0 WSW | 252 3.3 0.00 0.09 41.4 56.3
12/3/22 - 1930 54.7 94 53.2 0.6 WSW | 241 2.0 0.01 0.09 41.4 56.3
12/3/22 - 1915 55.0 94 53.5 1.4 SSW | 207 3.1 0.00 0.08 41.4 56.3
12/3/22 - 1900 54.9 94 53.3 3.1 SSE | 152 6.8 0.00 0.08 41.4 56.3
12/3/22 - 1845 54.7 94 53.1 2.4 SSE | 160 6.1 0.00 0.08 41.4 56.3
12/3/22 - 1830 54.8 94 53.0 2.1 SSW | 208 4.8 0.01 0.08 41.4 56.3
12/3/22 - 1815 55.1 94 53.2 3.0 SW | 228 5.0 0.00 0.07 41.4 56.3
12/3/22 - 1800 55.2 93 53.3 2.1 SSE | 149 3.7 0.00 0.07 41.4 56.3
12/3/22 - 1745 55.2 93 53.2 2.4 SSE | 153 4.4 0.00 0.07 41.4 56.3
12/3/22 - 1730 55.3 93 53.2 3.4 SSE | 166 7.0 0.00 0.07 41.4 56.3
12/3/22 - 1715 55.4 92 53.2 4.2 SSE | 152 8.6 0.01 0.07 41.4 56.3
12/3/22 - 1700 55.5 92 53.2 4.3 SSE | 154 8.8 0.00 0.06 41.4 56.3
12/3/22 - 1645 55.5 92 53.1 4.3 SSE | 155 7.9 0.00 0.06 41.4 56.3
12/3/22 - 1630 55.6 91 53.2 4.7 SSE | 149 10.1 0.00 0.06 41.4 56.3
12/3/22 - 1615 55.7 91 53.2 4.6 SE | 139 9.6 0.00 0.06 41.4 56.3
12/3/22 - 1600 55.8 91 53.2 5.2 SE | 135 10.1 0.01 0.06 41.4 56.3
12/3/22 - 1545 56.0 90 53.2 5.2 SE | 133 10.1 0.00 0.05 41.4 56.3
12/3/22 - 1530 56.0 90 53.3 5.9 SE | 139 12.7 0.00 0.05 41.4 56.3
12/3/22 - 1515 55.9 92 53.5 4.8 SE | 140 10.7 0.00 0.05 41.4 56.2
12/3/22 - 1500 55.5 92 53.3 4.2 SE | 130 8.3 0.01 0.05 41.4 55.8
12/3/22 - 1445 55.2 92 53.0 5.3 SE | 142 9.6 0.00 0.04 41.4 55.6
12/3/22 - 1430 54.8 92 52.6 5.5 SE | 140 11.8 0.00 0.04 41.4 55.0
12/3/22 - 1415 54.1 93 52.0 5.0 SE | 145 10.5 0.00 0.04 41.4 54.8
12/3/22 - 1400 53.3 92 51.0 5.4 SE | 136 11.8 0.00 0.04 41.4 54.2
12/3/22 - 1345 53.4 90 50.7 7.7 SSE | 148 14.9 0.01 0.04 41.4 54.2
12/3/22 - 1330 53.8 89 50.7 7.9 SSE | 163 16.2 0.00 0.03 41.4 54.2
12/3/22 - 1315 54.0 90 51.2 7.0 SSE | 155 12.9 0.00 0.03 41.4 54.2
12/3/22 - 1300 53.7 92 51.3 8.4 SSE | 150 14.0 0.00 0.03 41.4 54.2
12/3/22 - 1245 52.8 93 50.8 7.5 SSE | 147 14.5 0.00 0.03 41.4 53.4
12/3/22 - 1230 51.6 93 49.6 6.5 SE | 137 13.2 0.01 0.03 41.4 52.5
12/3/22 - 1215 51.3 91 48.8 6.5 SSE | 158 12.3 0.00 0.02 41.4 52.2
12/3/22 - 1200 51.6 90 48.7 6.7 SSE | 159 11.6 0.00 0.02 41.4 52.2
12/3/22 - 1145 51.9 89 48.6 6.7 SSE | 149 13.4 0.00 0.02 41.4 52.2
12/3/22 - 1130 51.4 88 48.1 8.2 SE | 142 15.6 0.00 0.02 41.4 51.6
12/3/22 - 1115 51.3 88 47.9 8.4 SE | 145 15.3 0.00 0.02 41.4 51.5
12/3/22 - 1100 50.9 88 47.6 8.2 SE | 146 13.6 0.00 0.02 41.4 51.4
12/3/22 - 1045 50.5 90 47.5 8.3 SE | 140 15.1 0.01 0.02 41.4 50.9
12/3/22 - 1030 49.7 91 47.2 7.9 SE | 137 13.2 0.00 0.01 41.4 50.3
12/3/22 - 1015 49.3 92 47.0 6.8 SE | 141 15.1 0.00 0.01 41.4 49.6
12/3/22 - 1000 48.6 92 46.2 6.3 SE | 124 11.6 0.00 0.01 41.4 49.0
12/3/22 - 0945 48.3 92 46.0 6.1 SE | 132 11.8 0.00 0.01 41.4 48.6
12/3/22 - 0930 47.9 91 45.6 6.9 SE | 135 14.5 0.01 0.01 41.4 48.2
12/3/22 - 0915 47.5 91 45.0 6.9 SE | 128 13.2 0.00 0.00 41.4 47.9
12/3/22 - 0900 47.2 90 44.5 6.8 ESE | 123 12.5 0.00 0.00 41.4 47.4
12/3/22 - 0845 47.1 89 44.2 6.0 SE | 140 11.8 0.00 0.00 41.4 47.4
12/3/22 - 0830 47.0 89 43.8 4.9 SE | 131 10.1 0.00 0.00 41.4 47.2
12/3/22 - 0815 46.9 89 43.8 6.2 SE | 144 10.7 0.00 0.00 41.4 47.2
12/3/22 - 0800 46.8 88 43.5 7.1 SE | 140 13.8 0.00 0.00 41.4 47.0
12/3/22 - 0745 46.8 87 43.2 7.0 SE | 138 12.9 0.00 0.00 41.4 47.0
12/3/22 - 0730 46.7 87 43.0 6.8 SSE | 148 11.8 0.00 0.00 41.4 47.0
12/3/22 - 0715 46.8 86 42.9 7.1 SSE | 158 13.6 0.00 0.00 41.4 47.0
12/3/22 - 0700 46.7 86 42.7 7.5 SSE | 159 14.5 0.00 0.00 41.4 47.0
12/3/22 - 0645 46.5 85 42.4 5.8 SE | 136 11.2 0.00 0.00 41.4 46.8
12/3/22 - 0630 46.1 85 41.8 5.5 SE | 142 11.4 0.00 0.00 41.4 46.5
12/3/22 - 0615 45.7 84 41.2 4.8 SE | 141 8.1 0.00 0.00 41.4 45.9
Max 56.0 96 53.5 8.4 - 16.2 0.01 0.13 45.1 56.3
Avg 49.3 93 47.3 4.3 - 8.3 0.00 - - -
Min 43.9 84 41.2 0.6 - 2.0 0.00 0.00 41.4 45.5
Total - - - - - - 0.18 - - -

Last 7 Days

Modesto Jr College

Daily Data | America/Los_Angeles
as of 12/4/22 6:18 AM PST
Date Daily ETo (in)
12/3/22 0.020
12/2/22 0.044
12/1/22 0.018
11/30/22 0.056
11/29/22 0.060
11/28/22 0.073
11/27/22 0.052
Max 0.073
Min 0.018